Terminal Aerodrome Forecast
Issued by NWS

Home | Current Version | Previous Version | Text Only | Print | Product List | Glossary On
Versions: 1 2 3 4 5 6 7 8 9 10 11 12 13 14 15 16 17 18 19 20 21 22 23 24 25 26 27
965
FTUS41 KRLX 041810 RRA
TAFCKB
TAF
KCKB 041810Z 0418/0518 25004KT P6SM VCSH BKN035
     FM050200 24003KT 6SM SHRA VCTS OVC030CB
     FM050500 25003KT 5SM SHRA OVC025
     FM050600 26003KT 3SM SHRA BR OVC020
     FM051100 28004KT 2SM SHRA BR OVC010
     FM051300 31005KT 1SM SHRA HZ OVC005=

USA.gov is the U.S. government's official web portal to all federal, state and local government web resources and services.